PWSweather.com
Personal Weather Stations
Station Observations
COONRAPIDS
Minneapolis, MN 55433

Minneapolis, MN 55433

Lat: 45.187721, Lon: -93.36828

Elevation: 898

Station Type: Davis Vantage Pro 2

Latest ConditionsUpdated 9:10:01 PM CDT Friday, Apr 18, 2014
Currently Today's Max Today's Min Today's Average
Temperature 43.5°F6.4°C 49.6°F9.8°C 20.4°F-6.4°C 36.6°F2.6°C
Dew Point 27.5°F-2.5°C 30.1°F-1.1°C 16.9°F-8.4°C 25.2°F-3.8°C
Winds Calm Calm 4.0 mph SE6.4 kmh SE - 1.0 mph 1.6 kmh
Wind Gusts -- 9.0 mph14.5 kmh - -
Humidity 53% 88% 45% 66%
Pressure 29.97 in1014.9 mb 29.97 in1014.9 mb 29.97 in1014.9 mb -
Hour Temp Dew Point Humidity Winds Wind Gusts Pressure Precip Precip Rate Daily Precip Total
09:10 PM 43.5°F6.4°C 27.5°F-2.5°C 53% Calm Calm -- 29.97 in1014.9 mb 0.00 in0.0 mm 0.00 in/hr0.0 mm/hr 0.00 in0.0 mm
09:00 PM 43.9°F6.6°C 27.9°F-2.3°C 53% 0.2 mph E0.3 kmh E 2.0 mph3.2 kmh 29.97 in1014.9 mb 0.00 in0.0 mm 0.00 in/hr0.0 mm/hr 0.00 in0.0 mm
08:50 PM 44.4°F6.9°C 28.4°F-2.0°C 53% 0.1 mph E0.2 kmh E 1.0 mph1.6 kmh 29.97 in1014.9 mb 0.00 in0.0 mm 0.00 in/hr0.0 mm/hr 0.00 in0.0 mm
08:40 PM 45.0°F7.2°C 28.4°F-2.0°C 52% 0.5 mph E0.8 kmh E 3.0 mph4.8 kmh 29.97 in1014.9 mb 0.00 in0.0 mm 0.00 in/hr0.0 mm/hr 0.00 in0.0 mm
08:30 PM 45.4°F7.4°C 28.3°F-2.1°C 51% 0.4 mph E0.6 kmh E -- 29.97 in1014.9 mb 0.00 in0.0 mm 0.00 in/hr0.0 mm/hr 0.00 in0.0 mm
08:20 PM 45.8°F7.7°C 28.2°F-2.1°C 50% 1.6 mph E2.6 kmh E 3.0 mph4.8 kmh 29.97 in1014.9 mb 0.00 in0.0 mm 0.00 in/hr0.0 mm/hr 0.00 in0.0 mm
08:10 PM 46.2°F7.9°C 28.1°F-2.2°C 49% 0.3 mph ESE0.5 kmh ESE 1.0 mph1.6 kmh 29.97 in1014.9 mb 0.00 in0.0 mm 0.00 in/hr0.0 mm/hr 0.00 in0.0 mm
08:00 PM 46.7°F8.2°C 28.5°F-1.9°C 49% 1.1 mph ESE1.8 kmh ESE 5.0 mph8.0 kmh 29.97 in1014.9 mb 0.00 in0.0 mm 0.00 in/hr0.0 mm/hr 0.00 in0.0 mm
07:50 PM 47.1°F8.4°C 28.9°F-1.7°C 49% 1.2 mph ESE1.9 kmh ESE 2.0 mph3.2 kmh 29.97 in1014.9 mb 0.00 in0.0 mm 0.00 in/hr0.0 mm/hr 0.00 in0.0 mm
07:40 PM 47.5°F8.6°C 28.8°F-1.8°C 48% 1.3 mph E2.1 kmh E 3.0 mph4.8 kmh 29.97 in1014.9 mb 0.00 in0.0 mm 0.00 in/hr0.0 mm/hr 0.00 in0.0 mm
07:30 PM 47.9°F8.8°C 28.6°F-1.9°C 47% 2.6 mph ESE4.2 kmh ESE 3.0 mph4.8 kmh 29.97 in1014.9 mb 0.00 in0.0 mm 0.00 in/hr0.0 mm/hr 0.00 in0.0 mm
07:20 PM 48.4°F9.1°C 29.1°F-1.6°C 47% 1.9 mph ESE3.1 kmh ESE 5.0 mph8.0 kmh 29.97 in1014.9 mb 0.00 in0.0 mm 0.00 in/hr0.0 mm/hr 0.00 in0.0 mm
07:10 PM 48.5°F9.2°C 29.2°F-1.6°C 47% 2.4 mph ESE3.9 kmh ESE 2.0 mph3.2 kmh 29.97 in1014.9 mb 0.00 in0.0 mm 0.00 in/hr0.0 mm/hr 0.00 in0.0 mm
07:00 PM 48.6°F9.2°C 28.8°F-1.8°C 46% 0.9 mph ESE1.4 kmh ESE 3.0 mph4.8 kmh 29.97 in1014.9 mb 0.00 in0.0 mm 0.00 in/hr0.0 mm/hr 0.00 in0.0 mm
06:50 PM 49.0°F9.4°C 29.1°F-1.6°C 46% 3.0 mph E4.8 kmh E 5.0 mph8.0 kmh 29.97 in1014.9 mb 0.00 in0.0 mm 0.00 in/hr0.0 mm/hr 0.00 in0.0 mm
06:40 PM 49.1°F9.5°C 29.2°F-1.6°C 46% 1.0 mph E1.6 kmh E 3.0 mph4.8 kmh 29.97 in1014.9 mb 0.00 in0.0 mm 0.00 in/hr0.0 mm/hr 0.00 in0.0 mm
06:30 PM 48.8°F9.3°C 28.4°F-2.0°C 45% 2.8 mph E4.5 kmh E 4.0 mph6.4 kmh 29.97 in1014.9 mb 0.00 in0.0 mm 0.00 in/hr0.0 mm/hr 0.00 in0.0 mm
06:20 PM 48.8°F9.3°C 28.4°F-2.0°C 45% 3.6 mph ESE5.8 kmh ESE 7.0 mph11.3 kmh 29.97 in1014.9 mb 0.00 in0.0 mm 0.00 in/hr0.0 mm/hr 0.00 in0.0 mm
06:10 PM 48.8°F9.3°C 28.9°F-1.7°C 46% 0.6 mph SE1.0 kmh SE 2.0 mph3.2 kmh 29.97 in1014.9 mb 0.00 in0.0 mm 0.00 in/hr0.0 mm/hr 0.00 in0.0 mm
06:00 PM 48.8°F9.3°C 28.9°F-1.7°C 46% 1.3 mph SE2.1 kmh SE 2.0 mph3.2 kmh 29.97 in1014.9 mb 0.00 in0.0 mm 0.00 in/hr0.0 mm/hr 0.00 in0.0 mm
05:50 PM 48.9°F9.4°C 28.5°F-1.9°C 45% 2.4 mph ESE3.9 kmh ESE 5.0 mph8.0 kmh 29.97 in1014.9 mb 0.00 in0.0 mm 0.00 in/hr0.0 mm/hr 0.00 in0.0 mm
05:40 PM 49.0°F9.4°C 29.1°F-1.6°C 46% 2.5 mph ESE4.0 kmh ESE 6.0 mph9.7 kmh 29.97 in1014.9 mb 0.00 in0.0 mm 0.00 in/hr0.0 mm/hr 0.00 in0.0 mm
05:30 PM 49.3°F9.6°C 28.8°F-1.8°C 45% 2.2 mph ESE3.5 kmh ESE 5.0 mph8.0 kmh 29.97 in1014.9 mb 0.00 in0.0 mm 0.00 in/hr0.0 mm/hr 0.00 in0.0 mm
05:20 PM 49.5°F9.7°C 29.0°F-1.7°C 45% 3.2 mph SE5.1 kmh SE 5.0 mph8.0 kmh 29.97 in1014.9 mb 0.00 in0.0 mm 0.00 in/hr0.0 mm/hr 0.00 in0.0 mm
05:10 PM 49.4°F9.7°C 28.9°F-1.7°C 45% 3.7 mph E6.0 kmh E 4.0 mph6.4 kmh 29.97 in1014.9 mb 0.00 in0.0 mm 0.00 in/hr0.0 mm/hr 0.00 in0.0 mm
05:00 PM 49.4°F9.7°C 28.9°F-1.7°C 45% 4.0 mph SE6.4 kmh SE 5.0 mph8.0 kmh 29.97 in1014.9 mb 0.00 in0.0 mm 0.00 in/hr0.0 mm/hr 0.00 in0.0 mm
04:50 PM 49.4°F9.7°C 28.9°F-1.7°C 45% 3.8 mph SE6.1 kmh SE 9.0 mph14.5 kmh 29.97 in1014.9 mb 0.00 in0.0 mm 0.00 in/hr0.0 mm/hr 0.00 in0.0 mm
04:40 PM 49.6°F9.8°C 29.1°F-1.6°C 45% 2.1 mph ESE3.4 kmh ESE 3.0 mph4.8 kmh 29.97 in1014.9 mb 0.00 in0.0 mm 0.00 in/hr0.0 mm/hr 0.00 in0.0 mm
04:30 PM 49.6°F9.8°C 29.7°F-1.3°C 46% 2.6 mph ESE4.2 kmh ESE 4.0 mph6.4 kmh 29.97 in1014.9 mb 0.00 in0.0 mm 0.00 in/hr0.0 mm/hr 0.00 in0.0 mm
04:20 PM 49.1°F9.5°C 29.2°F-1.6°C 46% 2.8 mph E4.5 kmh E 3.0 mph4.8 kmh 29.97 in1014.9 mb 0.00 in0.0 mm 0.00 in/hr0.0 mm/hr 0.00 in0.0 mm
04:10 PM 48.9°F9.4°C 29.0°F-1.7°C 46% 2.0 mph SE3.2 kmh SE 5.0 mph8.0 kmh 29.97 in1014.9 mb 0.00 in0.0 mm 0.00 in/hr0.0 mm/hr 0.00 in0.0 mm
04:00 PM 49.2°F9.6°C 29.3°F-1.5°C 46% 1.8 mph SE2.9 kmh SE 7.0 mph11.3 kmh 29.97 in1014.9 mb 0.00 in0.0 mm 0.00 in/hr0.0 mm/hr 0.00 in0.0 mm
03:50 PM 49.3°F9.6°C 28.8°F-1.8°C 45% 3.3 mph SE5.3 kmh SE 5.0 mph8.0 kmh 29.97 in1014.9 mb 0.00 in0.0 mm 0.00 in/hr0.0 mm/hr 0.00 in0.0 mm
03:40 PM 49.2°F9.6°C 29.3°F-1.5°C 46% 1.7 mph E2.7 kmh E 3.0 mph4.8 kmh 29.97 in1014.9 mb 0.00 in0.0 mm 0.00 in/hr0.0 mm/hr 0.00 in0.0 mm
03:30 PM 48.9°F9.4°C 28.5°F-1.9°C 45% 3.0 mph ESE4.8 kmh ESE 5.0 mph8.0 kmh 29.97 in1014.9 mb 0.00 in0.0 mm 0.00 in/hr0.0 mm/hr 0.00 in0.0 mm
03:20 PM 49.0°F9.4°C 28.6°F-1.9°C 45% 0.6 mph ESE1.0 kmh ESE 2.0 mph3.2 kmh 29.97 in1014.9 mb 0.00 in0.0 mm 0.00 in/hr0.0 mm/hr 0.00 in0.0 mm
03:10 PM 49.1°F9.5°C 28.7°F-1.8°C 45% 2.0 mph SE3.2 kmh SE 5.0 mph8.0 kmh 29.97 in1014.9 mb 0.00 in0.0 mm 0.00 in/hr0.0 mm/hr 0.00 in0.0 mm
03:00 PM 49.1°F9.5°C 28.6°F-1.9°C 45% 1.9 mph SE3.1 kmh SE 4.0 mph6.4 kmh 29.97 in1014.9 mb 0.00 in0.0 mm 0.00 in/hr0.0 mm/hr 0.00 in0.0 mm
02:50 PM 49.2°F9.6°C 28.7°F-1.8°C 45% 1.6 mph SE2.6 kmh SE 4.0 mph6.4 kmh 29.97 in1014.9 mb 0.00 in0.0 mm 0.00 in/hr0.0 mm/hr 0.00 in0.0 mm
02:40 PM 48.6°F9.2°C 28.2°F-2.1°C 45% 3.4 mph SE5.5 kmh SE 5.0 mph8.0 kmh 29.97 in1014.9 mb 0.00 in0.0 mm 0.00 in/hr0.0 mm/hr 0.00 in0.0 mm
02:30 PM 48.9°F9.4°C 28.5°F-1.9°C 45% 0.9 mph SE1.4 kmh SE 4.0 mph6.4 kmh 29.97 in1014.9 mb 0.00 in0.0 mm 0.00 in/hr0.0 mm/hr 0.00 in0.0 mm
02:20 PM 49.2°F9.6°C 29.3°F-1.5°C 46% Calm Calm 1.0 mph1.6 kmh 29.97 in1014.9 mb 0.00 in0.0 mm 0.00 in/hr0.0 mm/hr 0.00 in0.0 mm
02:10 PM 48.7°F9.3°C 28.3°F-2.1°C 45% 1.0 mph ESE1.6 kmh ESE 3.0 mph4.8 kmh 29.97 in1014.9 mb 0.00 in0.0 mm 0.00 in/hr0.0 mm/hr 0.00 in0.0 mm
02:00 PM 48.6°F9.2°C 28.2°F-2.1°C 45% 0.5 mph E0.8 kmh E 2.0 mph3.2 kmh 29.97 in1014.9 mb 0.00 in0.0 mm 0.00 in/hr0.0 mm/hr 0.00 in0.0 mm
01:50 PM 48.4°F9.1°C 29.1°F-1.6°C 47% 1.4 mph SE2.3 kmh SE 4.0 mph6.4 kmh 29.97 in1014.9 mb 0.00 in0.0 mm 0.00 in/hr0.0 mm/hr 0.00 in0.0 mm
01:40 PM 47.9°F8.8°C 28.7°F-1.8°C 47% 1.8 mph SSE2.9 kmh SSE 5.0 mph8.0 kmh 29.97 in1014.9 mb 0.00 in0.0 mm 0.00 in/hr0.0 mm/hr 0.00 in0.0 mm
01:30 PM 47.8°F8.8°C 29.1°F-1.6°C 48% 1.7 mph NE2.7 kmh NE 2.0 mph3.2 kmh 29.97 in1014.9 mb 0.00 in0.0 mm 0.00 in/hr0.0 mm/hr 0.00 in0.0 mm
01:20 PM 47.6°F8.7°C 28.9°F-1.7°C 48% 3.4 mph SE5.5 kmh SE 6.0 mph9.7 kmh 29.97 in1014.9 mb 0.00 in0.0 mm 0.00 in/hr0.0 mm/hr 0.00 in0.0 mm
01:10 PM 47.3°F8.5°C 29.1°F-1.6°C 49% 2.3 mph SE3.7 kmh SE 4.0 mph6.4 kmh 29.97 in1014.9 mb 0.00 in0.0 mm 0.00 in/hr0.0 mm/hr 0.00 in0.0 mm
01:00 PM 47.0°F8.3°C 29.3°F-1.5°C 50% 2.0 mph ESE3.2 kmh ESE 3.0 mph4.8 kmh 29.97 in1014.9 mb 0.00 in0.0 mm 0.00 in/hr0.0 mm/hr 0.00 in0.0 mm
12:50 PM 46.3°F7.9°C 28.7°F-1.8°C 50% 2.1 mph E3.4 kmh E 6.0 mph9.7 kmh 29.97 in1014.9 mb 0.00 in0.0 mm 0.00 in/hr0.0 mm/hr 0.00 in0.0 mm
12:40 PM 46.1°F7.8°C 29.0°F-1.7°C 51% 2.7 mph S4.3 kmh S 4.0 mph6.4 kmh 29.97 in1014.9 mb 0.00 in0.0 mm 0.00 in/hr0.0 mm/hr 0.00 in0.0 mm
12:30 PM 46.5°F8.1°C 28.8°F-1.8°C 50% 2.1 mph E3.4 kmh E 2.0 mph3.2 kmh 29.97 in1014.9 mb 0.00 in0.0 mm 0.00 in/hr0.0 mm/hr 0.00 in0.0 mm
12:20 PM 46.2°F7.9°C 29.1°F-1.6°C 51% 1.7 mph ESE2.7 kmh ESE 4.0 mph6.4 kmh 29.97 in1014.9 mb 0.00 in0.0 mm 0.00 in/hr0.0 mm/hr 0.00 in0.0 mm
12:10 PM 45.6°F7.6°C 28.5°F-1.9°C 51% 2.3 mph SE3.7 kmh SE 4.0 mph6.4 kmh 29.97 in1014.9 mb 0.00 in0.0 mm 0.00 in/hr0.0 mm/hr 0.00 in0.0 mm
12:00 PM 45.6°F7.6°C 28.5°F-1.9°C 51% 2.4 mph SE3.9 kmh SE 7.0 mph11.3 kmh 29.97 in1014.9 mb 0.00 in0.0 mm 0.00 in/hr0.0 mm/hr 0.00 in0.0 mm
11:50 AM 45.7°F7.6°C 29.0°F-1.7°C 52% 2.2 mph S3.5 kmh S 3.0 mph4.8 kmh 29.97 in1014.9 mb 0.00 in0.0 mm 0.00 in/hr0.0 mm/hr 0.00 in0.0 mm
11:40 AM 45.3°F7.4°C 29.6°F-1.3°C 54% 0.1 mph ESE0.2 kmh ESE 3.0 mph4.8 kmh 29.97 in1014.9 mb 0.00 in0.0 mm 0.00 in/hr0.0 mm/hr 0.00 in0.0 mm
11:30 AM 44.5°F6.9°C 29.3°F-1.5°C 55% 0.2 mph S0.3 kmh S 3.0 mph4.8 kmh 29.97 in1014.9 mb 0.00 in0.0 mm 0.00 in/hr0.0 mm/hr 0.00 in0.0 mm
11:20 AM 43.8°F6.6°C 29.1°F-1.6°C 56% 2.7 mph SSE4.3 kmh SSE 5.0 mph8.0 kmh 29.97 in1014.9 mb 0.00 in0.0 mm 0.00 in/hr0.0 mm/hr 0.00 in0.0 mm
11:10 AM 43.2°F6.2°C 29.0°F-1.7°C 57% 2.1 mph SSE3.4 kmh SSE 3.0 mph4.8 kmh 29.97 in1014.9 mb 0.00 in0.0 mm 0.00 in/hr0.0 mm/hr 0.00 in0.0 mm
11:00 AM 42.8°F6.0°C 28.6°F-1.9°C 57% 2.6 mph SE4.2 kmh SE 5.0 mph8.0 kmh 29.97 in1014.9 mb 0.00 in0.0 mm 0.00 in/hr0.0 mm/hr 0.00 in0.0 mm
10:50 AM 42.3°F5.7°C 29.0°F-1.7°C 59% 1.0 mph SE1.6 kmh SE 3.0 mph4.8 kmh 29.97 in1014.9 mb 0.00 in0.0 mm 0.00 in/hr0.0 mm/hr 0.00 in0.0 mm
10:40 AM 42.0°F5.6°C 29.9°F-1.2°C 62% Calm Calm 1.0 mph1.6 kmh 29.97 in1014.9 mb 0.00 in0.0 mm 0.00 in/hr0.0 mm/hr 0.00 in0.0 mm
10:30 AM 40.9°F4.9°C 29.3°F-1.5°C 63% 0.2 mph SE0.3 kmh SE -- 29.97 in1014.9 mb 0.00 in0.0 mm 0.00 in/hr0.0 mm/hr 0.00 in0.0 mm
10:20 AM 40.2°F4.6°C 29.4°F-1.4°C 65% 1.1 mph E1.8 kmh E 1.0 mph1.6 kmh 29.97 in1014.9 mb 0.00 in0.0 mm 0.00 in/hr0.0 mm/hr 0.00 in0.0 mm
10:10 AM 39.6°F4.2°C 29.2°F-1.6°C 66% 1.5 mph E2.4 kmh E 3.0 mph4.8 kmh 29.97 in1014.9 mb 0.00 in0.0 mm 0.00 in/hr0.0 mm/hr 0.00 in0.0 mm
10:00 AM 39.5°F4.2°C 29.8°F-1.2°C 68% 0.1 mph E0.2 kmh E 2.0 mph3.2 kmh 29.97 in1014.9 mb 0.00 in0.0 mm 0.00 in/hr0.0 mm/hr 0.00 in0.0 mm
09:50 AM 37.9°F3.3°C 29.3°F-1.5°C 71% 1.0 mph E1.6 kmh E 3.0 mph4.8 kmh 29.97 in1014.9 mb 0.00 in0.0 mm 0.00 in/hr0.0 mm/hr 0.00 in0.0 mm
09:40 AM 37.3°F2.9°C 29.1°F-1.6°C 72% 2.5 mph E4.0 kmh E 5.0 mph8.0 kmh 29.97 in1014.9 mb 0.00 in0.0 mm 0.00 in/hr0.0 mm/hr 0.00 in0.0 mm
09:30 AM 36.8°F2.7°C 29.6°F-1.3°C 75% 2.0 mph E3.2 kmh E 2.0 mph3.2 kmh 29.97 in1014.9 mb 0.00 in0.0 mm 0.00 in/hr0.0 mm/hr 0.00 in0.0 mm
09:20 AM 35.6°F2.0°C 29.7°F-1.3°C 79% 0.7 mph SE1.1 kmh SE 1.0 mph1.6 kmh 29.97 in1014.9 mb 0.00 in0.0 mm 0.00 in/hr0.0 mm/hr 0.00 in0.0 mm
09:10 AM 34.8°F1.6°C 29.6°F-1.3°C 81% Calm Calm -- 29.97 in1014.9 mb 0.00 in0.0 mm 0.00 in/hr0.0 mm/hr 0.00 in0.0 mm
09:00 AM 34.4°F1.3°C 30.1°F-1.1°C 84% Calm Calm -- 29.97 in1014.9 mb 0.00 in0.0 mm 0.00 in/hr0.0 mm/hr 0.00 in0.0 mm
08:50 AM 32.7°F0.4°C 29.0°F-1.7°C 86% Calm Calm -- 29.97 in1014.9 mb 0.00 in0.0 mm 0.00 in/hr0.0 mm/hr 0.00 in0.0 mm
08:40 AM 31.5°F-0.3°C 28.0°F-2.2°C 87% 0.4 mph SE0.6 kmh SE -- 29.97 in1014.9 mb 0.00 in0.0 mm 0.00 in/hr0.0 mm/hr 0.00 in0.0 mm
08:30 AM 30.3°F-0.9°C 27.1°F-2.7°C 88% Calm Calm -- 29.97 in1014.9 mb 0.00 in0.0 mm 0.00 in/hr0.0 mm/hr 0.00 in0.0 mm
08:20 AM 29.4°F-1.4°C 26.3°F-3.2°C 88% Calm Calm -- 29.97 in1014.9 mb 0.00 in0.0 mm 0.00 in/hr0.0 mm/hr 0.00 in0.0 mm
08:10 AM 28.6°F-1.9°C 25.5°F-3.6°C 88% Calm Calm -- 29.97 in1014.9 mb 0.00 in0.0 mm 0.00 in/hr0.0 mm/hr 0.00 in0.0 mm
08:00 AM 27.7°F-2.4°C 24.4°F-4.2°C 87% Calm Calm -- 29.97 in1014.9 mb 0.00 in0.0 mm 0.00 in/hr0.0 mm/hr 0.00 in0.0 mm
07:50 AM 27.0°F-2.8°C 23.6°F-4.7°C 87% Calm Calm -- 29.97 in1014.9 mb 0.00 in0.0 mm 0.00 in/hr0.0 mm/hr 0.00 in0.0 mm
07:40 AM 26.5°F-3.1°C 23.2°F-4.9°C 87% Calm Calm -- 29.97 in1014.9 mb 0.00 in0.0 mm 0.00 in/hr0.0 mm/hr 0.00 in0.0 mm
07:30 AM 25.9°F-3.4°C 22.5°F-5.3°C 87% Calm Calm -- 29.97 in1014.9 mb 0.00 in0.0 mm 0.00 in/hr0.0 mm/hr 0.00 in0.0 mm
07:20 AM 25.1°F-3.8°C 21.8°F-5.7°C 87% Calm Calm -- 29.97 in1014.9 mb 0.00 in0.0 mm 0.00 in/hr0.0 mm/hr 0.00 in0.0 mm
07:10 AM 24.5°F-4.2°C 21.2°F-6.0°C 87% Calm Calm -- 29.97 in1014.9 mb 0.00 in0.0 mm 0.00 in/hr0.0 mm/hr 0.00 in0.0 mm
07:00 AM 23.9°F-4.5°C 20.6°F-6.3°C 87% Calm Calm -- 29.97 in1014.9 mb 0.00 in0.0 mm 0.00 in/hr0.0 mm/hr 0.00 in0.0 mm
06:50 AM 23.4°F-4.8°C 20.1°F-6.6°C 87% Calm Calm -- 29.97 in1014.9 mb 0.00 in0.0 mm 0.00 in/hr0.0 mm/hr 0.00 in0.0 mm
06:40 AM 22.8°F-5.1°C 19.5°F-6.9°C 87% Calm Calm -- 29.97 in1014.9 mb 0.00 in0.0 mm 0.00 in/hr0.0 mm/hr 0.00 in0.0 mm
06:30 AM 21.8°F-5.7°C 18.3°F-7.6°C 86% Calm Calm -- 29.97 in1014.9 mb 0.00 in0.0 mm 0.00 in/hr0.0 mm/hr 0.00 in0.0 mm
06:20 AM 21.3°F-5.9°C 17.7°F-7.9°C 86% Calm Calm -- 29.97 in1014.9 mb 0.00 in0.0 mm 0.00 in/hr0.0 mm/hr 0.00 in0.0 mm
06:10 AM 20.7°F-6.3°C 17.2°F-8.2°C 86% Calm Calm -- 29.97 in1014.9 mb 0.00 in0.0 mm 0.00 in/hr0.0 mm/hr 0.00 in0.0 mm
06:00 AM 20.4°F-6.4°C 16.9°F-8.4°C 86% Calm Calm -- 29.97 in1014.9 mb 0.00 in0.0 mm 0.00 in/hr0.0 mm/hr 0.00 in0.0 mm
05:50 AM 20.4°F-6.4°C 16.9°F-8.4°C 86% Calm Calm -- 29.97 in1014.9 mb 0.00 in0.0 mm 0.00 in/hr0.0 mm/hr 0.00 in0.0 mm
05:40 AM 20.5°F-6.4°C 17.0°F-8.3°C 86% Calm Calm -- 29.97 in1014.9 mb 0.00 in0.0 mm 0.00 in/hr0.0 mm/hr 0.00 in0.0 mm
05:30 AM 20.6°F-6.3°C 17.1°F-8.3°C 86% Calm Calm -- 29.97 in1014.9 mb 0.00 in0.0 mm 0.00 in/hr0.0 mm/hr 0.00 in0.0 mm
05:20 AM 20.8°F-6.2°C 17.3°F-8.2°C 86% Calm Calm -- 29.97 in1014.9 mb 0.00 in0.0 mm 0.00 in/hr0.0 mm/hr 0.00 in0.0 mm
05:10 AM 20.6°F-6.3°C 17.1°F-8.3°C 86% Calm Calm -- 29.97 in1014.9 mb 0.00 in0.0 mm 0.00 in/hr0.0 mm/hr 0.00 in0.0 mm
05:00 AM 20.6°F-6.3°C 17.1°F-8.3°C 86% Calm Calm -- 29.97 in1014.9 mb 0.00 in0.0 mm 0.00 in/hr0.0 mm/hr 0.00 in0.0 mm
04:50 AM 20.7°F-6.3°C 17.2°F-8.2°C 86% Calm Calm -- 29.97 in1014.9 mb 0.00 in0.0 mm 0.00 in/hr0.0 mm/hr 0.00 in0.0 mm
04:40 AM 20.8°F-6.2°C 17.3°F-8.2°C 86% Calm Calm -- 29.97 in1014.9 mb 0.00 in0.0 mm 0.00 in/hr0.0 mm/hr 0.00 in0.0 mm
04:30 AM 21.0°F-6.1°C 17.4°F-8.1°C 86% Calm Calm -- 29.97 in1014.9 mb 0.00 in0.0 mm 0.00 in/hr0.0 mm/hr 0.00 in0.0 mm
04:20 AM 20.9°F-6.2°C 17.4°F-8.1°C 86% Calm Calm -- 29.97 in1014.9 mb 0.00 in0.0 mm 0.00 in/hr0.0 mm/hr 0.00 in0.0 mm
04:10 AM 21.0°F-6.1°C 17.5°F-8.1°C 86% Calm Calm -- 29.97 in1014.9 mb 0.00 in0.0 mm 0.00 in/hr0.0 mm/hr 0.00 in0.0 mm
04:00 AM 21.2°F-6.0°C 17.7°F-7.9°C 86% Calm Calm -- 29.97 in1014.9 mb 0.00 in0.0 mm 0.00 in/hr0.0 mm/hr 0.00 in0.0 mm
03:50 AM 21.4°F-5.9°C 17.9°F-7.8°C 86% Calm Calm -- 29.97 in1014.9 mb 0.00 in0.0 mm 0.00 in/hr0.0 mm/hr 0.00 in0.0 mm
03:40 AM 21.5°F-5.8°C 18.0°F-7.8°C 86% Calm Calm -- 29.97 in1014.9 mb 0.00 in0.0 mm 0.00 in/hr0.0 mm/hr 0.00 in0.0 mm
03:30 AM 21.6°F-5.8°C 18.1°F-7.7°C 86% Calm Calm -- 29.97 in1014.9 mb 0.00 in0.0 mm 0.00 in/hr0.0 mm/hr 0.00 in0.0 mm
03:20 AM 21.7°F-5.7°C 17.9°F-7.8°C 85% Calm Calm -- 29.97 in1014.9 mb 0.00 in0.0 mm 0.00 in/hr0.0 mm/hr 0.00 in0.0 mm
03:10 AM 21.7°F-5.7°C 17.9°F-7.8°C 85% Calm Calm -- 29.97 in1014.9 mb 0.00 in0.0 mm 0.00 in/hr0.0 mm/hr 0.00 in0.0 mm
03:00 AM 21.7°F-5.7°C 17.9°F-7.8°C 85% Calm Calm -- 29.97 in1014.9 mb 0.00 in0.0 mm 0.00 in/hr0.0 mm/hr 0.00 in0.0 mm
02:50 AM 22.0°F-5.6°C 18.2°F-7.7°C 85% Calm Calm -- 29.97 in1014.9 mb 0.00 in0.0 mm 0.00 in/hr0.0 mm/hr 0.00 in0.0 mm
02:40 AM 22.4°F-5.3°C 18.6°F-7.4°C 85% Calm Calm -- 29.97 in1014.9 mb 0.00 in0.0 mm 0.00 in/hr0.0 mm/hr 0.00 in0.0 mm
02:30 AM 22.5°F-5.3°C 18.7°F-7.4°C 85% Calm Calm -- 29.97 in1014.9 mb 0.00 in0.0 mm 0.00 in/hr0.0 mm/hr 0.00 in0.0 mm
02:20 AM 22.7°F-5.2°C 18.9°F-7.3°C 85% Calm Calm -- 29.97 in1014.9 mb 0.00 in0.0 mm 0.00 in/hr0.0 mm/hr 0.00 in0.0 mm
02:10 AM 23.1°F-4.9°C 19.3°F-7.1°C 85% Calm Calm -- 29.97 in1014.9 mb 0.00 in0.0 mm 0.00 in/hr0.0 mm/hr 0.00 in0.0 mm
02:00 AM 23.6°F-4.7°C 19.7°F-6.8°C 85% Calm Calm -- 29.97 in1014.9 mb 0.00 in0.0 mm 0.00 in/hr0.0 mm/hr 0.00 in0.0 mm
01:50 AM 23.9°F-4.5°C 20.0°F-6.7°C 85% Calm Calm -- 29.97 in1014.9 mb 0.00 in0.0 mm 0.00 in/hr0.0 mm/hr 0.00 in0.0 mm
01:40 AM 24.1°F-4.4°C 20.2°F-6.6°C 85% Calm Calm -- 29.97 in1014.9 mb 0.00 in0.0 mm 0.00 in/hr0.0 mm/hr 0.00 in0.0 mm
01:30 AM 24.2°F-4.3°C 20.3°F-6.5°C 85% Calm Calm -- 29.97 in1014.9 mb 0.00 in0.0 mm 0.00 in/hr0.0 mm/hr 0.00 in0.0 mm
01:20 AM 24.5°F-4.2°C 20.6°F-6.3°C 85% Calm Calm -- 29.97 in1014.9 mb 0.00 in0.0 mm 0.00 in/hr0.0 mm/hr 0.00 in0.0 mm
01:10 AM 24.9°F-3.9°C 21.0°F-6.1°C 85% Calm Calm -- 29.97 in1014.9 mb 0.00 in0.0 mm 0.00 in/hr0.0 mm/hr 0.00 in0.0 mm
01:00 AM 25.3°F-3.7°C 21.1°F-6.1°C 84% Calm Calm -- 29.97 in1014.9 mb 0.00 in0.0 mm 0.00 in/hr0.0 mm/hr 0.00 in0.0 mm
12:50 AM 25.8°F-3.4°C 21.6°F-5.8°C 84% Calm Calm -- 29.97 in1014.9 mb 0.00 in0.0 mm 0.00 in/hr0.0 mm/hr 0.00 in0.0 mm
12:40 AM 25.8°F-3.4°C 21.6°F-5.8°C 84% Calm Calm -- 29.97 in1014.9 mb 0.00 in0.0 mm 0.00 in/hr0.0 mm/hr 0.00 in0.0 mm
12:30 AM 25.3°F-3.7°C 21.1°F-6.1°C 84% Calm Calm -- 29.97 in1014.9 mb 0.00 in0.0 mm 0.00 in/hr0.0 mm/hr 0.00 in0.0 mm
12:20 AM 25.3°F-3.7°C 21.1°F-6.1°C 84% Calm Calm -- 29.97 in1014.9 mb 0.00 in0.0 mm 0.00 in/hr0.0 mm/hr 0.00 in0.0 mm
12:10 AM 25.5°F-3.6°C 21.1°F-6.1°C 83% Calm Calm -- 29.97 in1014.9 mb 0.00 in0.0 mm 0.00 in/hr0.0 mm/hr 0.00 in0.0 mm
12:00 AM 26.0°F-3.3°C 21.6°F-5.8°C 83% Calm Calm -- 29.97 in1014.9 mb 0.00 in0.0 mm 0.00 in/hr0.0 mm/hr 0.00 in0.0 mm